sensor_id;sensor_type;location;lat;lon;timestamp;temperature;humidity
39525;DHT22;25203;50.754;6.978;2022-07-06T00:01:05;15.50;97.10
39525;DHT22;25203;50.754;6.978;2022-07-06T00:03:05;15.50;96.70
39525;DHT22;25203;50.754;6.978;2022-07-06T00:05:06;15.50;96.70
39525;DHT22;25203;50.754;6.978;2022-07-06T00:07:07;15.50;96.70
39525;DHT22;25203;50.754;6.978;2022-07-06T00:09:08;15.50;96.60
39525;DHT22;25203;50.754;6.978;2022-07-06T00:11:09;15.50;96.60
39525;DHT22;25203;50.754;6.978;2022-07-06T00:13:09;15.50;96.50
39525;DHT22;25203;50.754;6.978;2022-07-06T00:15:10;15.40;96.40
39525;DHT22;25203;50.754;6.978;2022-07-06T00:17:11;15.40;96.40
39525;DHT22;25203;50.754;6.978;2022-07-06T00:19:11;15.30;96.40
39525;DHT22;25203;50.754;6.978;2022-07-06T00:21:12;15.30;96.40
39525;DHT22;25203;50.754;6.978;2022-07-06T00:23:12;15.20;96.60
39525;DHT22;25203;50.754;6.978;2022-07-06T00:25:13;15.20;97.00
39525;DHT22;25203;50.754;6.978;2022-07-06T00:27:14;15.10;97.50
39525;DHT22;25203;50.754;6.978;2022-07-06T00:29:14;14.90;97.90
39525;DHT22;25203;50.754;6.978;2022-07-06T00:31:15;14.90;98.40
39525;DHT22;25203;50.754;6.978;2022-07-06T00:33:15;14.80;98.60
39525;DHT22;25203;50.754;6.978;2022-07-06T00:35:16;14.70;98.80
39525;DHT22;25203;50.754;6.978;2022-07-06T00:37:17;14.60;99.30
39525;DHT22;25203;50.754;6.978;2022-07-06T00:39:17;14.50;99.30
39525;DHT22;25203;50.754;6.978;2022-07-06T00:41:19;14.40;99.50
39525;DHT22;25203;50.754;6.978;2022-07-06T00:43:20;14.30;99.70
39525;DHT22;25203;50.754;6.978;2022-07-06T00:45:21;14.20;99.90
39525;DHT22;25203;50.754;6.978;2022-07-06T00:47:21;14.20;99.90
39525;DHT22;25203;50.754;6.978;2022-07-06T00:49:22;14.10;99.90
39525;DHT22;25203;50.754;6.978;2022-07-06T00:51:41;14.00;99.90
39525;DHT22;25203;50.754;6.978;2022-07-06T00:53:42;13.90;99.90
39525;DHT22;25203;50.754;6.978;2022-07-06T00:55:43;13.90;99.90
39525;DHT22;25203;50.754;6.978;2022-07-06T00:57:44;13.80;99.90
39525;DHT22;25203;50.754;6.978;2022-07-06T00:59:44;13.70;99.90
39525;DHT22;25203;50.754;6.978;2022-07-06T01:01:45;13.70;99.90
39525;DHT22;25203;50.754;6.978;2022-07-06T01:03:46;13.60;99.90
39525;DHT22;25203;50.754;6.978;2022-07-06T01:05:46;13.60;99.90
39525;DHT22;25203;50.754;6.978;2022-07-06T01:07:48;13.50;99.90
39525;DHT22;25203;50.754;6.978;2022-07-06T01:09:49;13.50;99.90
39525;DHT22;25203;50.754;6.978;2022-07-06T01:11:50;13.40;99.90
39525;DHT22;25203;50.754;6.978;2022-07-06T01:13:52;13.30;99.90
39525;DHT22;25203;50.754;6.978;2022-07-06T01:15:53;13.30;99.90
39525;DHT22;25203;50.754;6.978;2022-07-06T01:17:54;13.20;99.90
39525;DHT22;25203;50.754;6.978;2022-07-06T01:19:56;13.10;99.90
39525;DHT22;25203;50.754;6.978;2022-07-06T01:21:56;13.00;99.90
39525;DHT22;25203;50.754;6.978;2022-07-06T01:23:57;12.90;99.90
39525;DHT22;25203;50.754;6.978;2022-07-06T01:25:57;12.80;99.90
39525;DHT22;25203;50.754;6.978;2022-07-06T01:27:58;12.80;99.90
39525;DHT22;25203;50.754;6.978;2022-07-06T01:29:59;12.70;99.90
39525;DHT22;25203;50.754;6.978;2022-07-06T01:32:00;12.70;99.90
39525;DHT22;25203;50.754;6.978;2022-07-06T01:34:01;12.60;99.90
39525;DHT22;25203;50.754;6.978;2022-07-06T01:36:02;12.60;99.90
39525;DHT22;25203;50.754;6.978;2022-07-06T01:38:02;12.60;99.90
39525;DHT22;25203;50.754;6.978;2022-07-06T01:40:05;12.50;99.90
39525;DHT22;25203;50.754;6.978;2022-07-06T01:42:06;12.50;99.90
39525;DHT22;25203;50.754;6.978;2022-07-06T01:44:08;12.50;99.90
39525;DHT22;25203;50.754;6.978;2022-07-06T01:46:08;12.40;99.90
39525;DHT22;25203;50.754;6.978;2022-07-06T01:48:09;12.40;99.90
39525;DHT22;25203;50.754;6.978;2022-07-06T01:50:10;12.40;99.90
39525;DHT22;25203;50.754;6.978;2022-07-06T01:52:10;12.30;99.90
39525;DHT22;25203;50.754;6.978;2022-07-06T01:54:11;12.30;99.90
39525;DHT22;25203;50.754;6.978;2022-07-06T01:56:12;12.30;99.90
39525;DHT22;25203;50.754;6.978;2022-07-06T01:58:12;12.30;99.90
39525;DHT22;25203;50.754;6.978;2022-07-06T02:00:13;12.30;99.90
39525;DHT22;25203;50.754;6.978;2022-07-06T02:02:14;12.30;99.90
39525;DHT22;25203;50.754;6.978;2022-07-06T02:04:15;12.30;99.90
39525;DHT22;25203;50.754;6.978;2022-07-06T02:06:16;12.30;99.90
39525;DHT22;25203;50.754;6.978;2022-07-06T02:08:17;12.30;99.90
39525;DHT22;25203;50.754;6.978;2022-07-06T02:10:17;12.30;99.90
39525;DHT22;25203;50.754;6.978;2022-07-06T02:12:18;12.30;99.90
39525;DHT22;25203;50.754;6.978;2022-07-06T02:14:18;12.20;99.90
39525;DHT22;25203;50.754;6.978;2022-07-06T02:16:19;12.20;99.90
39525;DHT22;25203;50.754;6.978;2022-07-06T02:18:20;12.10;99.90
39525;DHT22;25203;50.754;6.978;2022-07-06T02:20:20;12.10;99.90
39525;DHT22;25203;50.754;6.978;2022-07-06T02:22:21;12.10;99.90
39525;DHT22;25203;50.754;6.978;2022-07-06T02:24:22;12.10;99.90
39525;DHT22;25203;50.754;6.978;2022-07-06T02:26:22;12.10;99.90
39525;DHT22;25203;50.754;6.978;2022-07-06T02:28:23;12.00;99.90
39525;DHT22;25203;50.754;6.978;2022-07-06T02:30:24;12.00;99.90
39525;DHT22;25203;50.754;6.978;2022-07-06T02:32:25;12.00;99.90
39525;DHT22;25203;50.754;6.978;2022-07-06T02:34:25;11.90;99.90
39525;DHT22;25203;50.754;6.978;2022-07-06T02:36:26;11.90;99.90
39525;DHT22;25203;50.754;6.978;2022-07-06T02:38:27;11.90;99.90
39525;DHT22;25203;50.754;6.978;2022-07-06T02:40:27;11.90;99.90
39525;DHT22;25203;50.754;6.978;2022-07-06T02:42:28;11.90;99.90
39525;DHT22;25203;50.754;6.978;2022-07-06T02:44:28;11.90;99.90
39525;DHT22;25203;50.754;6.978;2022-07-06T02:46:29;11.90;99.90
39525;DHT22;25203;50.754;6.978;2022-07-06T02:48:33;11.90;99.90
39525;DHT22;25203;50.754;6.978;2022-07-06T02:50:33;11.90;99.90
39525;DHT22;25203;50.754;6.978;2022-07-06T02:52:34;11.80;99.90
39525;DHT22;25203;50.754;6.978;2022-07-06T02:54:35;11.80;99.90
39525;DHT22;25203;50.754;6.978;2022-07-06T02:56:35;11.80;99.90
39525;DHT22;25203;50.754;6.978;2022-07-06T02:58:36;11.70;99.90
39525;DHT22;25203;50.754;6.978;2022-07-06T03:00:36;11.70;99.90
39525;DHT22;25203;50.754;6.978;2022-07-06T03:02:37;11.60;99.90
39525;DHT22;25203;50.754;6.978;2022-07-06T03:04:38;11.50;99.90
39525;DHT22;25203;50.754;6.978;2022-07-06T03:06:38;11.50;99.90
39525;DHT22;25203;50.754;6.978;2022-07-06T03:08:39;11.40;99.90
39525;DHT22;25203;50.754;6.978;2022-07-06T03:10:39;11.40;99.90
39525;DHT22;25203;50.754;6.978;2022-07-06T03:12:40;11.30;99.90
39525;DHT22;25203;50.754;6.978;2022-07-06T03:14:40;11.30;99.90
39525;DHT22;25203;50.754;6.978;2022-07-06T03:16:41;11.20;99.90
39525;DHT22;25203;50.754;6.978;2022-07-06T03:18:42;11.20;99.90
39525;DHT22;25203;50.754;6.978;2022-07-06T03:20:42;11.20;99.90
39525;DHT22;25203;50.754;6.978;2022-07-06T03:22:43;11.10;99.90
39525;DHT22;25203;50.754;6.978;2022-07-06T03:24:44;11.10;99.90
39525;DHT22;25203;50.754;6.978;2022-07-06T03:26:44;11.00;99.90
39525;DHT22;25203;50.754;6.978;2022-07-06T03:28:45;11.00;99.90
39525;DHT22;25203;50.754;6.978;2022-07-06T03:30:46;11.00;99.90
39525;DHT22;25203;50.754;6.978;2022-07-06T03:32:46;10.90;99.90
39525;DHT22;25203;50.754;6.978;2022-07-06T03:34:47;10.90;99.90
39525;DHT22;25203;50.754;6.978;2022-07-06T03:36:47;10.90;99.90
39525;DHT22;25203;50.754;6.978;2022-07-06T03:38:48;10.80;99.90
39525;DHT22;25203;50.754;6.978;2022-07-06T03:40:49;10.80;99.90
39525;DHT22;25203;50.754;6.978;2022-07-06T03:42:49;10.80;99.90
39525;DHT22;25203;50.754;6.978;2022-07-06T03:44:50;10.80;99.90
39525;DHT22;25203;50.754;6.978;2022-07-06T03:46:51;10.70;99.90
39525;DHT22;25203;50.754;6.978;2022-07-06T03:48:53;10.70;99.90
39525;DHT22;25203;50.754;6.978;2022-07-06T03:50:54;10.70;99.90
39525;DHT22;25203;50.754;6.978;2022-07-06T03:52:55;10.70;99.90
39525;DHT22;25203;50.754;6.978;2022-07-06T03:54:56;10.70;99.90
39525;DHT22;25203;50.754;6.978;2022-07-06T03:56:56;10.80;99.90
39525;DHT22;25203;50.754;6.978;2022-07-06T03:59:01;10.80;99.90
39525;DHT22;25203;50.754;6.978;2022-07-06T04:01:02;10.90;99.90
39525;DHT22;25203;50.754;6.978;2022-07-06T04:03:03;11.00;99.90
39525;DHT22;25203;50.754;6.978;2022-07-06T04:05:04;11.10;99.90
39525;DHT22;25203;50.754;6.978;2022-07-06T04:07:04;11.20;99.90
39525;DHT22;25203;50.754;6.978;2022-07-06T04:09:05;11.30;99.90
39525;DHT22;25203;50.754;6.978;2022-07-06T04:11:06;11.40;99.90
39525;DHT22;25203;50.754;6.978;2022-07-06T04:13:06;11.60;99.90
39525;DHT22;25203;50.754;6.978;2022-07-06T04:15:07;11.60;99.90
39525;DHT22;25203;50.754;6.978;2022-07-06T04:17:08;11.70;99.90
39525;DHT22;25203;50.754;6.978;2022-07-06T04:19:27;11.80;99.90
39525;DHT22;25203;50.754;6.978;2022-07-06T04:21:28;11.80;99.90
39525;DHT22;25203;50.754;6.978;2022-07-06T04:23:28;11.80;99.90
39525;DHT22;25203;50.754;6.978;2022-07-06T04:25:29;11.80;99.90
39525;DHT22;25203;50.754;6.978;2022-07-06T04:27:30;11.80;99.90
39525;DHT22;25203;50.754;6.978;2022-07-06T04:29:30;11.80;99.90
39525;DHT22;25203;50.754;6.978;2022-07-06T04:31:31;11.80;99.90
39525;DHT22;25203;50.754;6.978;2022-07-06T04:33:31;11.90;99.90
39525;DHT22;25203;50.754;6.978;2022-07-06T04:35:32;12.00;99.90
39525;DHT22;25203;50.754;6.978;2022-07-06T04:37:33;12.20;99.90
39525;DHT22;25203;50.754;6.978;2022-07-06T04:39:33;12.30;99.90
39525;DHT22;25203;50.754;6.978;2022-07-06T04:41:34;12.40;99.90
39525;DHT22;25203;50.754;6.978;2022-07-06T04:43:35;12.50;99.90
39525;DHT22;25203;50.754;6.978;2022-07-06T04:45:35;12.60;99.90
39525;DHT22;25203;50.754;6.978;2022-07-06T04:47:36;12.70;99.90
39525;DHT22;25203;50.754;6.978;2022-07-06T04:49:36;12.70;99.90
39525;DHT22;25203;50.754;6.978;2022-07-06T04:51:37;12.80;99.90
39525;DHT22;25203;50.754;6.978;2022-07-06T04:53:38;12.80;99.90
39525;DHT22;25203;50.754;6.978;2022-07-06T04:55:38;12.80;99.90
39525;DHT22;25203;50.754;6.978;2022-07-06T04:57:39;12.90;99.90
39525;DHT22;25203;50.754;6.978;2022-07-06T04:59:40;12.90;99.90
39525;DHT22;25203;50.754;6.978;2022-07-06T05:01:40;12.90;99.90
39525;DHT22;25203;50.754;6.978;2022-07-06T05:03:41;13.10;99.90
39525;DHT22;25203;50.754;6.978;2022-07-06T05:05:42;13.10;99.90
39525;DHT22;25203;50.754;6.978;2022-07-06T05:07:42;13.20;99.90
39525;DHT22;25203;50.754;6.978;2022-07-06T05:09:43;13.30;99.90
39525;DHT22;25203;50.754;6.978;2022-07-06T05:11:43;13.40;99.90
39525;DHT22;25203;50.754;6.978;2022-07-06T05:13:45;13.50;99.90
39525;DHT22;25203;50.754;6.978;2022-07-06T05:15:45;13.50;99.90
39525;DHT22;25203;50.754;6.978;2022-07-06T05:17:46;13.70;99.90
39525;DHT22;25203;50.754;6.978;2022-07-06T05:19:47;13.70;99.90
39525;DHT22;25203;50.754;6.978;2022-07-06T05:21:47;13.80;99.90
39525;DHT22;25203;50.754;6.978;2022-07-06T05:23:48;13.80;99.90
39525;DHT22;25203;50.754;6.978;2022-07-06T05:25:49;13.80;99.90
39525;DHT22;25203;50.754;6.978;2022-07-06T05:27:49;13.80;99.90
39525;DHT22;25203;50.754;6.978;2022-07-06T05:29:50;13.90;99.90
39525;DHT22;25203;50.754;6.978;2022-07-06T05:31:51;13.80;99.90
39525;DHT22;25203;50.754;6.978;2022-07-06T05:33:51;13.80;99.90
39525;DHT22;25203;50.754;6.978;2022-07-06T05:35:52;13.80;99.90
39525;DHT22;25203;50.754;6.978;2022-07-06T05:37:52;13.80;99.90
39525;DHT22;25203;50.754;6.978;2022-07-06T05:39:53;13.90;99.90
39525;DHT22;25203;50.754;6.978;2022-07-06T05:41:54;13.90;99.90
39525;DHT22;25203;50.754;6.978;2022-07-06T05:43:54;13.90;99.90
39525;DHT22;25203;50.754;6.978;2022-07-06T05:45:55;14.10;99.90
39525;DHT22;25203;50.754;6.978;2022-07-06T05:47:55;14.10;99.90
39525;DHT22;25203;50.754;6.978;2022-07-06T05:50:15;14.20;99.90
39525;DHT22;25203;50.754;6.978;2022-07-06T05:52:15;14.20;99.90
39525;DHT22;25203;50.754;6.978;2022-07-06T05:54:16;14.30;99.90
39525;DHT22;25203;50.754;6.978;2022-07-06T05:56:17;14.30;99.90
39525;DHT22;25203;50.754;6.978;2022-07-06T05:58:17;14.30;99.90
39525;DHT22;25203;50.754;6.978;2022-07-06T06:00:18;14.10;99.90
39525;DHT22;25203;50.754;6.978;2022-07-06T06:02:19;14.00;99.90
39525;DHT22;25203;50.754;6.978;2022-07-06T06:04:19;14.10;99.90
39525;DHT22;25203;50.754;6.978;2022-07-06T06:06:21;14.20;99.90
39525;DHT22;25203;50.754;6.978;2022-07-06T06:08:21;14.20;99.90
39525;DHT22;25203;50.754;6.978;2022-07-06T06:10:22;14.30;99.90
39525;DHT22;25203;50.754;6.978;2022-07-06T06:12:23;14.30;99.90
39525;DHT22;25203;50.754;6.978;2022-07-06T06:14:24;14.30;99.90
39525;DHT22;25203;50.754;6.978;2022-07-06T06:16:24;14.40;99.90
39525;DHT22;25203;50.754;6.978;2022-07-06T06:18:25;14.40;99.90
39525;DHT22;25203;50.754;6.978;2022-07-06T06:20:25;14.40;99.90
39525;DHT22;25203;50.754;6.978;2022-07-06T06:22:26;14.40;99.90
39525;DHT22;25203;50.754;6.978;2022-07-06T06:24:27;14.50;99.90
39525;DHT22;25203;50.754;6.978;2022-07-06T06:26:28;14.60;99.90
39525;DHT22;25203;50.754;6.978;2022-07-06T06:28:29;14.60;99.90
39525;DHT22;25203;50.754;6.978;2022-07-06T06:30:30;14.70;99.90
39525;DHT22;25203;50.754;6.978;2022-07-06T06:32:30;14.90;99.90
39525;DHT22;25203;50.754;6.978;2022-07-06T06:34:31;15.20;99.90
39525;DHT22;25203;50.754;6.978;2022-07-06T06:36:32;15.50;99.90
39525;DHT22;25203;50.754;6.978;2022-07-06T06:38:32;15.80;99.90
39525;DHT22;25203;50.754;6.978;2022-07-06T06:40:34;16.10;99.90
39525;DHT22;25203;50.754;6.978;2022-07-06T06:42:37;16.30;99.90
39525;DHT22;25203;50.754;6.978;2022-07-06T06:44:38;16.40;99.90
39525;DHT22;25203;50.754;6.978;2022-07-06T06:46:39;16.50;99.90
39525;DHT22;25203;50.754;6.978;2022-07-06T06:48:40;16.60;99.90
39525;DHT22;25203;50.754;6.978;2022-07-06T06:50:40;16.60;99.90
39525;DHT22;25203;50.754;6.978;2022-07-06T06:52:41;16.70;99.90
39525;DHT22;25203;50.754;6.978;2022-07-06T06:54:41;16.80;99.90
39525;DHT22;25203;50.754;6.978;2022-07-06T06:56:42;16.80;99.90
39525;DHT22;25203;50.754;6.978;2022-07-06T06:58:43;16.80;99.90
39525;DHT22;25203;50.754;6.978;2022-07-06T07:00:44;16.90;99.90
39525;DHT22;25203;50.754;6.978;2022-07-06T07:02:45;17.10;99.90
39525;DHT22;25203;50.754;6.978;2022-07-06T07:04:45;17.20;99.90
39525;DHT22;25203;50.754;6.978;2022-07-06T07:06:46;17.10;99.80
39525;DHT22;25203;50.754;6.978;2022-07-06T07:08:47;17.00;99.80
39525;DHT22;25203;50.754;6.978;2022-07-06T07:10:48;17.10;99.90
39525;DHT22;25203;50.754;6.978;2022-07-06T07:12:48;17.10;99.50
39525;DHT22;25203;50.754;6.978;2022-07-06T07:14:49;17.30;99.70
39525;DHT22;25203;50.754;6.978;2022-07-06T07:16:50;17.60;99.50
39525;DHT22;25203;50.754;6.978;2022-07-06T07:18:51;17.80;99.20
39525;DHT22;25203;50.754;6.978;2022-07-06T07:20:51;17.90;98.60
39525;DHT22;25203;50.754;6.978;2022-07-06T07:22:52;18.00;98.40
39525;DHT22;25203;50.754;6.978;2022-07-06T07:24:53;18.10;97.90
39525;DHT22;25203;50.754;6.978;2022-07-06T07:26:53;18.10;97.90
39525;DHT22;25203;50.754;6.978;2022-07-06T07:28:54;18.00;97.50
39525;DHT22;25203;50.754;6.978;2022-07-06T07:30:54;17.70;97.60
39525;DHT22;25203;50.754;6.978;2022-07-06T07:32:55;17.60;98.00
39525;DHT22;25203;50.754;6.978;2022-07-06T07:34:56;17.40;98.20
39525;DHT22;25203;50.754;6.978;2022-07-06T07:36:57;17.20;98.30
39525;DHT22;25203;50.754;6.978;2022-07-06T07:38:57;17.20;98.70
39525;DHT22;25203;50.754;6.978;2022-07-06T07:40:58;17.60;98.80
39525;DHT22;25203;50.754;6.978;2022-07-06T07:42:58;17.70;97.70
39525;DHT22;25203;50.754;6.978;2022-07-06T07:44:59;18.00;97.70
39525;DHT22;25203;50.754;6.978;2022-07-06T07:47:00;18.50;97.10
39525;DHT22;25203;50.754;6.978;2022-07-06T07:49:00;18.90;96.60
39525;DHT22;25203;50.754;6.978;2022-07-06T07:51:01;19.20;95.50
39525;DHT22;25203;50.754;6.978;2022-07-06T07:53:02;19.60;94.80
39525;DHT22;25203;50.754;6.978;2022-07-06T07:55:03;20.10;94.00
39525;DHT22;25203;50.754;6.978;2022-07-06T07:57:05;20.30;93.30
39525;DHT22;25203;50.754;6.978;2022-07-06T07:59:06;20.10;91.90
39525;DHT22;25203;50.754;6.978;2022-07-06T08:01:06;20.00;92.40
39525;DHT22;25203;50.754;6.978;2022-07-06T08:03:07;19.70;92.00
39525;DHT22;25203;50.754;6.978;2022-07-06T08:05:08;19.30;92.20
39525;DHT22;25203;50.754;6.978;2022-07-06T08:07:09;18.90;92.50
39525;DHT22;25203;50.754;6.978;2022-07-06T08:09:09;18.70;92.90
39525;DHT22;25203;50.754;6.978;2022-07-06T08:11:10;18.30;93.50
39525;DHT22;25203;50.754;6.978;2022-07-06T08:13:10;18.10;93.70
39525;DHT22;25203;50.754;6.978;2022-07-06T08:15:11;18.00;94.30
39525;DHT22;25203;50.754;6.978;2022-07-06T08:17:12;18.00;94.10
39525;DHT22;25203;50.754;6.978;2022-07-06T08:19:13;18.00;94.30
39525;DHT22;25203;50.754;6.978;2022-07-06T08:21:15;18.30;94.30
39525;DHT22;25203;50.754;6.978;2022-07-06T08:23:16;18.70;94.00
39525;DHT22;25203;50.754;6.978;2022-07-06T08:25:16;19.10;93.70
39525;DHT22;25203;50.754;6.978;2022-07-06T08:27:17;19.40;93.70
39525;DHT22;25203;50.754;6.978;2022-07-06T08:29:18;19.60;92.30
39525;DHT22;25203;50.754;6.978;2022-07-06T08:31:18;19.70;91.60
39525;DHT22;25203;50.754;6.978;2022-07-06T08:33:19;19.60;91.10
39525;DHT22;25203;50.754;6.978;2022-07-06T08:35:20;19.50;90.90
39525;DHT22;25203;50.754;6.978;2022-07-06T08:37:20;19.30;91.30
39525;DHT22;25203;50.754;6.978;2022-07-06T08:39:21;19.10;91.40
39525;DHT22;25203;50.754;6.978;2022-07-06T08:41:24;19.00;91.60
39525;DHT22;25203;50.754;6.978;2022-07-06T08:43:25;18.80;91.40
39525;DHT22;25203;50.754;6.978;2022-07-06T08:45:26;18.60;91.80
39525;DHT22;25203;50.754;6.978;2022-07-06T08:47:28;18.20;91.90
39525;DHT22;25203;50.754;6.978;2022-07-06T08:49:30;18.10;92.40
39525;DHT22;25203;50.754;6.978;2022-07-06T08:51:31;17.90;92.60
39525;DHT22;25203;50.754;6.978;2022-07-06T08:53:33;17.80;92.80
39525;DHT22;25203;50.754;6.978;2022-07-06T08:55:33;17.70;92.70
39525;DHT22;25203;50.754;6.978;2022-07-06T08:57:34;17.60;93.00
39525;DHT22;25203;50.754;6.978;2022-07-06T08:59:35;17.50;92.90
39525;DHT22;25203;50.754;6.978;2022-07-06T09:01:38;17.40;93.20
39525;DHT22;25203;50.754;6.978;2022-07-06T09:03:43;17.30;93.30
39525;DHT22;25203;50.754;6.978;2022-07-06T09:05:46;17.30;93.30
39525;DHT22;25203;50.754;6.978;2022-07-06T09:07:50;17.40;93.40
39525;DHT22;25203;50.754;6.978;2022-07-06T09:09:52;17.50;93.30
39525;DHT22;25203;50.754;6.978;2022-07-06T09:11:53;17.60;93.60
39525;DHT22;25203;50.754;6.978;2022-07-06T09:13:53;17.80;93.60
39525;DHT22;25203;50.754;6.978;2022-07-06T09:15:54;18.10;93.80
39525;DHT22;25203;50.754;6.978;2022-07-06T09:17:56;18.20;93.40
39525;DHT22;25203;50.754;6.978;2022-07-06T09:19:57;18.50;93.20
39525;DHT22;25203;50.754;6.978;2022-07-06T09:21:59;18.70;93.00
39525;DHT22;25203;50.754;6.978;2022-07-06T09:24:01;18.80;92.90
39525;DHT22;25203;50.754;6.978;2022-07-06T09:26:07;18.90;92.20
39525;DHT22;25203;50.754;6.978;2022-07-06T09:28:08;18.70;92.40
39525;DHT22;25203;50.754;6.978;2022-07-06T09:30:10;18.60;92.00
39525;DHT22;25203;50.754;6.978;2022-07-06T09:32:10;18.50;92.80
39525;DHT22;25203;50.754;6.978;2022-07-06T09:34:11;18.70;92.40
39525;DHT22;25203;50.754;6.978;2022-07-06T09:36:11;18.80;92.10
39525;DHT22;25203;50.754;6.978;2022-07-06T09:38:13;18.80;92.40
39525;DHT22;25203;50.754;6.978;2022-07-06T09:40:17;18.50;92.10
39525;DHT22;25203;50.754;6.978;2022-07-06T09:42:24;18.20;92.20
39525;DHT22;25203;50.754;6.978;2022-07-06T09:44:27;18.10;92.70
39525;DHT22;25203;50.754;6.978;2022-07-06T09:46:28;18.10;93.30
39525;DHT22;25203;50.754;6.978;2022-07-06T09:48:28;18.40;93.60
39525;DHT22;25203;50.754;6.978;2022-07-06T09:50:29;18.40;92.50
39525;DHT22;25203;50.754;6.978;2022-07-06T09:52:38;18.50;92.60
39525;DHT22;25203;50.754;6.978;2022-07-06T09:54:39;18.80;93.20
39525;DHT22;25203;50.754;6.978;2022-07-06T09:56:41;19.20;92.70
39525;DHT22;25203;50.754;6.978;2022-07-06T09:58:42;19.40;91.00
39525;DHT22;25203;50.754;6.978;2022-07-06T10:00:43;19.50;90.80
39525;DHT22;25203;50.754;6.978;2022-07-06T10:02:45;19.80;90.70
39525;DHT22;25203;50.754;6.978;2022-07-06T10:04:48;19.80;90.30
39525;DHT22;25203;50.754;6.978;2022-07-06T10:06:50;20.00;90.80
39525;DHT22;25203;50.754;6.978;2022-07-06T10:08:51;20.00;90.10
39525;DHT22;25203;50.754;6.978;2022-07-06T10:10:52;20.30;90.20
39525;DHT22;25203;50.754;6.978;2022-07-06T10:12:58;20.50;89.70
39525;DHT22;25203;50.754;6.978;2022-07-06T10:14:59;20.60;87.70
39525;DHT22;25203;50.754;6.978;2022-07-06T10:17:02;20.60;87.90
39525;DHT22;25203;50.754;6.978;2022-07-06T10:19:06;20.50;86.30
39525;DHT22;25203;50.754;6.978;2022-07-06T10:21:07;20.60;86.00
39525;DHT22;25203;50.754;6.978;2022-07-06T10:23:08;20.70;85.80
39525;DHT22;25203;50.754;6.978;2022-07-06T10:25:10;21.30;87.20
39525;DHT22;25203;50.754;6.978;2022-07-06T10:27:12;21.70;86.10
39525;DHT22;25203;50.754;6.978;2022-07-06T10:29:14;21.80;82.60
39525;DHT22;25203;50.754;6.978;2022-07-06T10:31:16;21.80;82.00
39525;DHT22;25203;50.754;6.978;2022-07-06T10:33:18;21.50;81.10
39525;DHT22;25203;50.754;6.978;2022-07-06T10:35:19;21.30;82.50
39525;DHT22;25203;50.754;6.978;2022-07-06T10:37:25;21.30;82.90
39525;DHT22;25203;50.754;6.978;2022-07-06T10:39:34;21.20;82.90
39525;DHT22;25203;50.754;6.978;2022-07-06T10:41:54;21.50;83.40
39525;DHT22;25203;50.754;6.978;2022-07-06T10:43:54;21.60;81.10
39525;DHT22;25203;50.754;6.978;2022-07-06T10:45:57;21.50;79.70
39525;DHT22;25203;50.754;6.978;2022-07-06T10:50:15;21.30;81.20
39525;DHT22;25203;50.754;6.978;2022-07-06T10:52:17;21.40;81.70
39525;DHT22;25203;50.754;6.978;2022-07-06T10:54:19;21.50;82.00
39525;DHT22;25203;50.754;6.978;2022-07-06T10:56:38;21.40;81.10
39525;DHT22;25203;50.754;6.978;2022-07-06T11:00:54;21.80;82.20
39525;DHT22;25203;50.754;6.978;2022-07-06T11:02:55;23.00;79.20
39525;DHT22;25203;50.754;6.978;2022-07-06T11:04:56;24.40;78.10
39525;DHT22;25203;50.754;6.978;2022-07-06T11:07:10;25.70;75.50
39525;DHT22;25203;50.754;6.978;2022-07-06T11:09:11;26.80;70.10
39525;DHT22;25203;50.754;6.978;2022-07-06T11:13:29;27.20;64.50
39525;DHT22;25203;50.754;6.978;2022-07-06T11:15:48;27.50;63.70
39525;DHT22;25203;50.754;6.978;2022-07-06T11:18:11;27.60;62.70
39525;DHT22;25203;50.754;6.978;2022-07-06T11:20:13;27.40;60.50
39525;DHT22;25203;50.754;6.978;2022-07-06T11:22:15;26.70;59.70
39525;DHT22;25203;50.754;6.978;2022-07-06T11:24:19;26.80;61.10
39525;DHT22;25203;50.754;6.978;2022-07-06T11:26:22;26.80;59.10
39525;DHT22;25203;50.754;6.978;2022-07-06T11:28:23;26.00;59.70
39525;DHT22;25203;50.754;6.978;2022-07-06T11:30:25;24.70;59.70
39525;DHT22;25203;50.754;6.978;2022-07-06T11:32:27;24.60;61.60
39525;DHT22;25203;50.754;6.978;2022-07-06T11:34:29;23.90;62.70
39525;DHT22;25203;50.754;6.978;2022-07-06T11:36:31;23.40;64.00
39525;DHT22;25203;50.754;6.978;2022-07-06T11:38:31;23.20;65.10
39525;DHT22;25203;50.754;6.978;2022-07-06T11:40:37;23.70;64.50
39525;DHT22;25203;50.754;6.978;2022-07-06T11:42:38;24.80;63.20
39525;DHT22;25203;50.754;6.978;2022-07-06T11:44:40;25.20;61.30
39525;DHT22;25203;50.754;6.978;2022-07-06T11:46:40;26.00;60.00
39525;DHT22;25203;50.754;6.978;2022-07-06T11:48:46;26.10;60.40
39525;DHT22;25203;50.754;6.978;2022-07-06T11:51:00;26.70;60.10
39525;DHT22;25203;50.754;6.978;2022-07-06T11:53:01;26.90;58.90
39525;DHT22;25203;50.754;6.978;2022-07-06T11:55:01;27.60;59.00
39525;DHT22;25203;50.754;6.978;2022-07-06T11:57:02;27.90;58.20
39525;DHT22;25203;50.754;6.978;2022-07-06T11:59:07;27.80;56.00
39525;DHT22;25203;50.754;6.978;2022-07-06T12:01:10;27.80;57.60
39525;DHT22;25203;50.754;6.978;2022-07-06T12:03:10;28.10;57.40
39525;DHT22;25203;50.754;6.978;2022-07-06T12:05:11;27.70;55.50
39525;DHT22;25203;50.754;6.978;2022-07-06T12:07:16;27.20;56.30
39525;DHT22;25203;50.754;6.978;2022-07-06T12:09:17;26.40;56.40
39525;DHT22;25203;50.754;6.978;2022-07-06T12:11:34;25.60;57.80
39525;DHT22;25203;50.754;6.978;2022-07-06T12:13:38;25.60;58.10
39525;DHT22;25203;50.754;6.978;2022-07-06T12:15:43;26.10;57.80
39525;DHT22;25203;50.754;6.978;2022-07-06T12:17:47;26.00;56.20
39525;DHT22;25203;50.754;6.978;2022-07-06T12:19:52;26.30;57.20
39525;DHT22;25203;50.754;6.978;2022-07-06T12:21:54;26.50;56.60
39525;DHT22;25203;50.754;6.978;2022-07-06T12:23:55;26.60;56.50
39525;DHT22;25203;50.754;6.978;2022-07-06T12:25:56;26.40;55.10
39525;DHT22;25203;50.754;6.978;2022-07-06T12:27:57;25.60;55.60
39525;DHT22;25203;50.754;6.978;2022-07-06T12:30:09;25.10;56.80
39525;DHT22;25203;50.754;6.978;2022-07-06T12:32:20;24.30;57.20
39525;DHT22;25203;50.754;6.978;2022-07-06T12:34:27;23.60;58.20
39525;DHT22;25203;50.754;6.978;2022-07-06T12:36:28;23.30;59.30
39525;DHT22;25203;50.754;6.978;2022-07-06T12:38:29;23.30;59.90
39525;DHT22;25203;50.754;6.978;2022-07-06T12:40:30;23.60;60.00
39525;DHT22;25203;50.754;6.978;2022-07-06T12:42:31;23.90;58.80
39525;DHT22;25203;50.754;6.978;2022-07-06T12:44:45;24.20;59.00
39525;DHT22;25203;50.754;6.978;2022-07-06T12:46:46;24.10;58.70
39525;DHT22;25203;50.754;6.978;2022-07-06T12:48:54;24.20;58.20
39525;DHT22;25203;50.754;6.978;2022-07-06T12:50:56;24.30;59.40
39525;DHT22;25203;50.754;6.978;2022-07-06T12:52:57;23.70;58.70
39525;DHT22;25203;50.754;6.978;2022-07-06T12:55:00;23.40;58.80